Vasiliy Bozhenko — URHP — position and weather

sailwx.info

Track history (hours):
 
Tides and Currents Weather Stations Pressure Air Temp Water Temp Dewpoint Dewpoint Depression Visibility Wind Speed Wind Dir Waves Ship Positions

Vasiliy Bozhenko

Last reported at 2015-Mar-25 15:33 UTC. Time now 2015-Mar-31 11:21 UTC.
Position N 39°56' E 024°05'.

Length 114 m; draft 3.8 m.

Type: Cargo ship. MMSI: 272085000.

Date/timePositionNaut miles runAvg speedWind from/ knotsBaromVisibWave heightAir tempDewpointWater temp
2015-Mar-25 15:33N 39°56' E 024°05'8 7.5
2015-Mar-25 14:31N 39°59' E 024°14'216 7.4
2015-Mar-24 09:27N 40°55' E 028°48'6 6.9
2015-Mar-24 08:34N 40°58' E 028°55'0 0.2
2015-Mar-24 07:17N 40°58' E 028°55'1 1.6
2015-Mar-24 06:33N 40°58' E 028°56'  
2015-Mar-21 09:30N 46°36' E 031°42'7 7.7
2015-Mar-21 08:34N 46°35' E 031°53'9 7.6
2015-Mar-21 07:21N 46°32' E 032°05'6 7.7
2015-Mar-21 06:33N 46°33' E 032°14'  
2015-Mar-18 14:16N 47°43' E 035°08'5 7.4
2015-Mar-18 13:33N 47°48' E 035°10'5 4.7
2015-Mar-18 12:32N 47°52' E 035°06'1 0.6
2015-Mar-18 11:34N 47°52' E 035°06'0 0.2
2015-Mar-18 10:32N 47°52' E 035°06'0 0.0
2015-Mar-18 09:32N 47°52' E 035°06'0 0.0
2015-Mar-18 08:33N 47°52' E 035°06'0 0.0
2015-Mar-18 07:29N 47°52' E 035°06'0 0.0
2015-Mar-18 06:33N 47°52' E 035°06'0 0.0
2015-Mar-18 05:32N 47°52' E 035°06'0 0.0
2015-Mar-18 04:26N 47°52' E 035°06'0 0.0
2015-Mar-18 03:32N 47°52' E 035°06'0 0.0
2015-Mar-18 02:27N 47°52' E 035°06'0 0.0
2015-Mar-18 01:28N 47°52' E 035°06'0 0.0
2015-Mar-18 00:32N 47°52' E 035°06'0 0.0
2015-Mar-17 23:32N 47°52' E 035°06'0 0.0
2015-Mar-17 22:30N 47°52' E 035°06'0 0.0
2015-Mar-17 21:30N 47°52' E 035°06'0 0.0
2015-Mar-17 20:31N 47°52' E 035°06'0 0.0
2015-Mar-17 19:33N 47°52' E 035°06'0 0.0
2015-Mar-17 18:29N 47°52' E 035°06'0 0.0
2015-Mar-17 17:29N 47°52' E 035°06'0 0.0
2015-Mar-17 10:06N 47°52' E 035°06'0 0.0
2015-Mar-17 08:29N 47°52' E 035°06'0 0.0
2015-Mar-17 07:32N 47°52' E 035°06'0 0.0
2015-Mar-17 06:32N 47°52' E 035°06'0 0.0
2015-Mar-17 05:32N 47°52' E 035°06'0 0.0
2015-Mar-17 04:32N 47°52' E 035°06'0 0.0
2015-Mar-17 03:32N 47°52' E 035°06'0 0.0
2015-Mar-17 02:33N 47°52' E 035°06'0 0.0
2015-Mar-17 01:33N 47°52' E 035°06'0 0.0
2015-Mar-17 00:33N 47°52' E 035°06'0 0.0
2015-Mar-16 23:31N 47°52' E 035°06'0 0.0
2015-Mar-16 22:33N 47°52' E 035°06'0 0.0
2015-Mar-16 21:33N 47°52' E 035°06'0 0.0
2015-Mar-16 20:32N 47°52' E 035°06'0 0.0
2015-Mar-16 19:28N 47°52' E 035°06'0 0.0
2015-Mar-16 18:26N 47°52' E 035°06'0 0.0
2015-Mar-16 17:30N 47°52' E 035°06'0 0.0
2015-Mar-16 16:30N 47°52' E 035°06'0 0.0
2015-Mar-16 15:30N 47°52' E 035°06'0 0.0
2015-Mar-16 14:31N 47°52' E 035°06'0 0.0
2015-Mar-16 13:33N 47°52' E 035°06'1 0.6
2015-Mar-16 12:18N 47°52' E 035°05'0 0.3
2015-Mar-16 11:32N 47°52' E 035°05'4 4.1
2015-Mar-16 10:34N 47°49' E 035°09'8 6.4
2015-Mar-16 09:19N 47°41' E 035°07'  
Track history (hours):
 
Tides and Currents Weather Stations Pressure Air Temp Water Temp Dewpoint Dewpoint Depression Visibility Wind Speed Wind Dir Waves Ship Positions

Vasiliy Bozhenko

Last reported at 2015-Mar-25 15:33 UTC. Time now 2015-Mar-31 11:21 UTC.
Position N 39°56' E 024°05'.

Length 114 m; draft 3.8 m.

Type: Cargo ship. MMSI: 272085000.

Date/timePositionNaut miles runAvg speedWind from/ knotsBaromVisibWave heightAir tempDewpointWater temp
2015-Mar-25 15:33N 39°56' E 024°05'8 7.5
2015-Mar-25 14:31N 39°59' E 024°14'216 7.4
2015-Mar-24 09:27N 40°55' E 028°48'6 6.9
2015-Mar-24 08:34N 40°58' E 028°55'0 0.2
2015-Mar-24 07:17N 40°58' E 028°55'1 1.6
2015-Mar-24 06:33N 40°58' E 028°56'  
2015-Mar-21 09:30N 46°36' E 031°42'7 7.7
2015-Mar-21 08:34N 46°35' E 031°53'9 7.6
2015-Mar-21 07:21N 46°32' E 032°05'6 7.7
2015-Mar-21 06:33N 46°33' E 032°14'  
2015-Mar-18 14:16N 47°43' E 035°08'5 7.4
2015-Mar-18 13:33N 47°48' E 035°10'5 4.7
2015-Mar-18 12:32N 47°52' E 035°06'1 0.6
2015-Mar-18 11:34N 47°52' E 035°06'0 0.2
2015-Mar-18 10:32N 47°52' E 035°06'0 0.0
2015-Mar-18 09:32N 47°52' E 035°06'0 0.0
2015-Mar-18 08:33N 47°52' E 035°06'0 0.0
2015-Mar-18 07:29N 47°52' E 035°06'0 0.0
2015-Mar-18 06:33N 47°52' E 035°06'0 0.0
2015-Mar-18 05:32N 47°52' E 035°06'0 0.0
2015-Mar-18 04:26N 47°52' E 035°06'0 0.0
2015-Mar-18 03:32N 47°52' E 035°06'0 0.0
2015-Mar-18 02:27N 47°52' E 035°06'0 0.0
2015-Mar-18 01:28N 47°52' E 035°06'0 0.0
2015-Mar-18 00:32N 47°52' E 035°06'0 0.0
2015-Mar-17 23:32N 47°52' E 035°06'0 0.0
2015-Mar-17 22:30N 47°52' E 035°06'0 0.0
2015-Mar-17 21:30N 47°52' E 035°06'0 0.0
2015-Mar-17 20:31N 47°52' E 035°06'0 0.0
2015-Mar-17 19:33N 47°52' E 035°06'0 0.0
2015-Mar-17 18:29N 47°52' E 035°06'0 0.0
2015-Mar-17 17:29N 47°52' E 035°06'0 0.0
2015-Mar-17 10:06N 47°52' E 035°06'0 0.0
2015-Mar-17 08:29N 47°52' E 035°06'0 0.0
2015-Mar-17 07:32N 47°52' E 035°06'0 0.0
2015-Mar-17 06:32N 47°52' E 035°06'0 0.0
2015-Mar-17 05:32N 47°52' E 035°06'0 0.0
2015-Mar-17 04:32N 47°52' E 035°06'0 0.0
2015-Mar-17 03:32N 47°52' E 035°06'0 0.0
2015-Mar-17 02:33N 47°52' E 035°06'0 0.0
2015-Mar-17 01:33N 47°52' E 035°06'0 0.0
2015-Mar-17 00:33N 47°52' E 035°06'0 0.0
2015-Mar-16 23:31N 47°52' E 035°06'0 0.0
2015-Mar-16 22:33N 47°52' E 035°06'0 0.0
2015-Mar-16 21:33N 47°52' E 035°06'0 0.0
2015-Mar-16 20:32N 47°52' E 035°06'0 0.0
2015-Mar-16 19:28N 47°52' E 035°06'0 0.0
2015-Mar-16 18:26N 47°52' E 035°06'0 0.0
2015-Mar-16 17:30N 47°52' E 035°06'0 0.0
2015-Mar-16 16:30N 47°52' E 035°06'0 0.0
2015-Mar-16 15:30N 47°52' E 035°06'0 0.0
2015-Mar-16 14:31N 47°52' E 035°06'0 0.0
2015-Mar-16 13:33N 47°52' E 035°06'1 0.6
2015-Mar-16 12:18N 47°52' E 035°05'0 0.3
2015-Mar-16 11:32N 47°52' E 035°05'4 4.1
2015-Mar-16 10:34N 47°49' E 035°09'8 6.4
2015-Mar-16 09:19N 47°41' E 035°07'  

Dump ship's entire track history